MET: Información y Pronóstico Aeronáutico

///////////////////////////////////////////////////////////////////////////////////////////////////////////////////////////////////////////////////////////////////////////////////////////////////////////////////////////////////////////////

Member for

1 año 6 meses
Enviado por meteorologia el Jue, 23/11/2017 - 11:39
24-1

23 DE ENERO 2020

INFORMACION METEOROLOGICA AERONAUTICA (METAR) 18:00 UTC

Aeropuerto AEROPARQUE J. NEWBERY

24 - 18:00 METAR SABE 241800Z 35011KT CAVOK 30/19 Q1009 NOSIG =

Aeropuerto BAHIA BLANCA

24 - 18:00 METAR SAZB 241800Z 16009KT CAVOK 28/08 Q1009 =

Aeropuerto BARILOCHE

24 - 18:00 METAR SAZS 241800Z 29020KT 9999 FEW100 BKN200 21/M02 Q1015 =

Aeropuerto CATAMARCA

24 - 18:00 METAR SANC 241800Z 18007KT 9999 FEW050TCU 36/18 Q1009 =

Aeropuerto CHAPELCO

24 - 18:00 METAR SAZY 241800Z 27020KT 9999 FEW100 BKN200 26/M03 Q1015 =

Aeropuerto COMODORO RIVADAVIA

24 - 17:00 METAR SAVC 241700Z 29026G40KT 260V330 CAVOK 25/07 Q1003 =

Aeropuerto CORDOBA

24 - 18:00 METAR SACO 241800Z 04009KT 350V070 9999 FEW040 32/19 Q1012 NOSIG =

Aeropuerto CORRIENTES

24 - 18:00 METAR SARC 241800Z 18007KT 9999 FEW020 31/19 Q1010 =

Aeropuerto EL CALAFATE

24 - 18:00 METAR SAWC 241800Z 27033G48KT 9999 FEW040 19/01 Q0995 =

Aeropuerto EL PALOMAR

24 - 18:00 METAR SADP 241800Z 29011KT 280V360 CAVOK 31/17 Q1009 =

Aeropuerto ESQUEL

24 - 17:00 METAR SAVE 241700Z 25010G22KT 200V340 9999 FEW040 SCT060 BKN070 20/06 Q1013 =

Aeropuerto EZEIZA

24 - 18:00 METAR SAEZ 241800Z 31009KT CAVOK 32/17 Q1008 NOSIG =

Aeropuerto FORMOSA

24 - 18:00 METAR SARF 241800Z 16003KT 9999 FEW020 33/18 Q1009 =

Aeropuerto IGUAZU/CATARATAS

24 - 18:00 METAR SARI 241800Z 20007KT 9999 SCT030 29/19 Q1009 =

Aeropuerto JUJUY

24 - 18:00 METAR SASJ 241800Z 14003KT 9999 FEW030 30/18 Q1014 =

Aeropuerto LA RIOJA

24 - 18:00 METAR SANL 241800Z 27002KT CAVOK 35/19 Q1010 =

Aeropuerto MALARGUE

24 - 18:00 METAR SAMM 241800Z 36009KT CAVOK 30/08 Q1017 =

Aeropuerto MAR DEL PLATA

24 - 18:00 METAR SAZM 241800Z 32018KT 9999 SCT030 FEW040TCU 34/19 Q1005 =

Aeropuerto MENDOZA

24 - 18:00 METAR SAME 241800Z 0907KT CAVOK 32/10 Q1012 =

Aeropuerto MORON

24 - 18:00 METAR SADM 241800Z 27010G20KT CAVOK 32/20 Q1009 =

Aeropuerto NEUQUEN

24 - 18:00 METAR SAZN 241800Z 27012KT CAVOK 32/03 Q1011 =

Aeropuerto PARANA

24 - 17:00 METAR SAAP 241700Z 34014KT 9999 FEW020 31/17 Q1012 =

Aeropuerto POSADAS

24 - 18:00 METAR SARP 241800Z 18006KT 9999 FEW010 31/18 Q1010 =

Aeropuerto PUERTO MADRYN

24 - 18:00 METAR SAVY 241800Z 29014KT CAVOK 25/04 Q1007 =

Aeropuerto RECONQUISTA

24 - 18:00 METAR SATR 241800Z 09006KT CAVOK 31/18 Q1010 =

Aeropuerto RESISTENCIA

24 - 18:00 METAR SARE 241800Z 17008KT CAVOK 31/16 Q1010 =

Aeropuerto RIO CUARTO

24 - 18:00 METAR SAOC 241800Z 18013KT 9999 FEW025 33/16 Q1010 =

Aeropuerto RIO GALLEGOS

24 - 17:00 METAR SAWG 241700Z 07011KT 9999 -RA FEW010 SCT030 11/09 Q0991 =

Aeropuerto RIO GRANDE

24 - 17:00 METAR SAWE 241700Z 36017KT 9999 BKN020 15/06 Q0992 RESHRA =

Aeropuerto ROSARIO

24 - 18:00 METAR SAAR 241800Z 32010KT CAVOK 33/17 Q1009 =

Aeropuerto SALTA

24 - 18:00 METAR SASA 241800Z 36005KT 9999 FEW028 30/16 Q1015 =

Aeropuerto SAN FERNANDO

24 - 18:00 METAR SADF 241800Z 30009KT CAVOK 33/22 Q1009 =

Aeropuerto SAN JUAN

24 - 18:00 METAR SANU 241800Z 18013KT CAVOK 36/12 Q1011 =

Aeropuerto SAN LUIS

24 - 17:00 METAR SAOU 241700Z VRB03KT CAVOK 33/17 Q1014 =

Aeropuerto SAN RAFAEL

24 - 18:00 METAR SAMR 241800Z 09006KT CAVOK 31/01 Q1014 =

Aeropuerto SANTA ROSA

24 - 18:00 METAR SAZR 241800Z 23008KT CAVOK 34/10 Q1009 =

Aeropuerto SANTIAGO DEL ESTERO

24 - 18:00 METAR SANE 241800Z 05005KT CAVOK 34/18 Q1010 =

Aeropuerto SAUCE VIEJO

24 - 18:00 METAR SAAV 241800Z 34007KT 9999 FEW048 32/19 Q1010 =

Aeropuerto TANDIL

24 - 17:00 METAR SAZT 241700Z 29015KT 9999 FEW030 32/17 Q1007 =

Aeropuerto TERMAS DE RIO HONDO

24 - 00:00 METAR SANR 240000Z 09004KT CAVOK 29/18 Q1010 =

Aeropuerto TRELEW

24 - 18:00 METAR SAVT 241800Z 25015KT 9999 FEW035 BKN100 26/03 Q1007 =

Aeropuerto TUCUMAN

24 - 17:00 METAR SANT 241700Z 23006KT CAVOK 31/20 Q1012 =

Aeropuerto USHUAIA

24 - 18:00 METAR SAWH 241800Z 00000KT 9999 BKN040 SCT100 13/04 Q0991 =

Aeropuerto VIEDMA

24 - 18:00 METAR SAVV 241800Z 14005KT 030V200 CAVOK 29/08 Q1008 =

Aeropuerto VILLA REYNOLDS

24 - 17:00 METAR SAOR 241700Z 18005KT 9999 FEW030 33/15 Q1013 =

 PRONOSTICO DE AERODROMO (TAF) 17:00 UTC

Estación AEROPARQUE J. NEWBERY

24 - 17:00 TAF SABE 241700Z 2418/2518 33010KT 9999 FEW040 TX31/2419Z TN23/2509Z PROB30 TEMPO 2501/2505 30010KT 8000 -SHRA SCT030 FEW050TCU BKN070 BECMG 2505/2508 25010KT 9999 FEW035 BECMG 2512/2515 CAVOK =

Estación BAHIA BLANCA

24 - 17:00 TAF SAZB 241700Z 2418/2518 14010KT CAVOK TX30/2518Z TN16/2509Z BECMG 2419/2421 11015KT BECMG 2502/2505 04015KT BECMG 2507/2509 VRB05KT BECMG 2512/2515 18015KT =

Estación BARILOCHE

24 - 17:00 TAF SAZS 241700Z 2418/2518 29020KT CAVOK TX25/2518Z TN13/2510Z TEMPO 2418/2422 29020G30KT =

Estación CATAMARCA

24 - 11:00 TAF SANC 241700Z 2418/2518 02020KT CAVOK TX40/2519Z TN23/2510Z =

Estación CHAPELCO

24 - 17:00 TAF SAZY 241700Z 2418/2518 27020KT CAVOK TX27/2518Z TN11/2509Z BECMG 2413/2416 27020G30KT BECMG 2423/2501 27010KT BECMG 2511/2513 27015G30KT =

Estación COMODORO RIVADAVIA

24 - 17:00 TAF SAVC 241700Z 2418/2518 29025G35KT 9999 FEW040 BKN200 TX27/2419Z TN16/2510Z BECMG 2422/2500 25020G30KT CAVOK BECMG 2503/2505 25015KT BECMG 2512/2513 VRB10KT =

Estación CORDOBA

24 - 17:00 TAF SACO 241700Z 2418/2518 02010KT CAVOK TX39/2519Z TN24/2510Z BECMG 2506/2509 34005KT 9999 SCT040 BECMG 2512/2515 18010KT 9999 SCT035 =

Estación CORRIENTES

24 - 17:00 TAF SARC 241700Z 2418/2518 14005KT 9999 SCT020 TX33/2518Z TN22/2509Z PROB30 2508/2512 4000 BR NSC =

Estación EL CALAFATE

24 - 17:00 TAF SAWC 241700Z 2418/2518 29015KT CAVOK TX18/2419Z TN07/2507Z TEMPO 2418/2421 25025G40KT BECMG 2503/2505 VRB10KT BECMG 2510/2511 25020G30KT =

Estación EL PALOMAR

24 - 17:00 TAF SADP 241700Z 2418/2518 32010KT CAVOK TX34/2518Z TN22/2509Z BECMG 2505/2507 VRB03KT PROB30 TEMPO 2502/2509 8000 SHRA FEW030 FEW045TCU BKN050 BECMG 2511/2513 27010KT =

Estación ESQUEL

24 - 17:00 TAF SAVE 241700Z 2418/2518 29920G30KT CAVOK TX23/2419Z TN09/2510Z BECMG 2500/2502 30020KT 9999 SCT030 SCT090 BECMG 2512/2513 25020G30KT =

Estación EZEIZA

24 - 17:00 TAF SAEZ 241700Z 2418/2518 29010KT CAVOK TX34/2518Z TN22/2509Z BECMG 2505/2507 VRB03KT PROB30 TEMPO 2502/2509 8000 SHRA FEW030 FEW045TCU BKN050 BECMG 2511/2513 27010KT =

Estación FORMOSA

24 - 17:00 TAF SARF 241700Z 2418/2518 14005KT 9999 SCT020 TX34/2518Z TN23/2509Z BECMG 2503/2505 09005KT PROB30 2508/2512 VRB03KT 4000 BR NSC =

Estación IGUAZU/CATARATAS

24 - 17:00 TAF SARI 241700Z 2418/2518 18005KT 9999 SCT030 TX32/2518Z TN20/2509Z BECMG 2421/2423 07005KT PROB30 2508/2512 VRB03KT 1500 BR NSC BECMG 2515/2517 05010KT 9999 SCT035 =

Estación JUJUY

24 - 17:00 TAF SASJ 241700Z 2418/2518 05005KT 9999 SCT030 FEW040CB TX38/2518Z TN18/2510Z BECMG 2421/2500 18005KT 8000 TSRA BKN020 FEW040CB BECMG 2509/2512 35005KT 9999 BKN030 =

Estación LA RIOJA

24 - 11:00 TAF SANL 241700Z 2418/2518 18005KT 9999 SCT045 TX41/2518Z TN26/2510Z =

Estación MAR DEL PLATA

24 - 17:00 TAF SAZM 241700Z 2418/2518 32020KT 9999 SCT030 TX34/2418Z TN15/2509Z BECMG 2419/2421 18015KT 9999 SCT020 BECMG 2423/2500 18015G25KT 7000 TSRA SCT015 FEW040CB BKN050 BECMG 2504/2506 VRB05KT 6000 BR BKN015 BECMG 2510/2511 16010KT 9999 CAVOK =

Estación MENDOZA

24 - 17:00 TAF SAME 241700Z 2418/2518 05010KT 9999 FEW040 TX37/2421Z TN24/2510Z BECMG 2509/2511 16010KT =

Estación NEUQUEN

24 - 17:00 TAF SAZN 241700Z 2418/2518 23010KT CAVOK TX34/2419Z TN18/2509Z BECMG 2419/2421 23015KT TEMPO 2421/2503 23020G30KT =

Estación PARANA

24 - 17:00 TAF SAAP 241700Z 2418/2518 32015KT 9999 FEW020 TX36/2518Z TN19/2509Z BECMG 2421/2423 CAVOK =

Estación POSADAS

24 - 17:00 TAF SARP 241700Z 2418/2518 14005KT 9999 SCT020 TX34/2518Z TN22/2509Z =

Estación RESISTENCIA

24 - 17:00 SARE 241700

Estación RIO CUARTO

24 - 11:00 TAF SAOC 241700Z 2418/2518 18010KT CAVOK TX39/2518Z TN19/2510Z BECMG 2506/2509 20010KT 9999 SCT035 FEW045 =

Estación RIO GALLEGOS

24 - 17:00 TAF SAWG 241700Z 2418/2518 05010KT 9999 -RA FEW010 OVC050 TX16/2419Z TN07/2510Z PROB40 TEMPO 1620 9000 +RA SCT010 BECMG 2421/2423 23025G40KT SCT040 SCT070 BECMG 2503/2505 VRB10KT CAVOK BECMG 2515/2516 25020G30KT 9999 SCT035 SCT050 =

Estación RIO GRANDE

24 - 17:00 TAF SAWE 241700Z 2418/2518 34015KT 9999 SCT020 TX16/2419Z TN06/2510Z BECMG 2421/2422 27015KT SCT020 BECMG 2506/2508 32010KT BKN040 BECMG 2512/2513 29025G35KT BKN030 BKN050 =

Estación ROSARIO

24 - 17:00 TAF SAAR 241700Z 2418/2518 32010KT 9999 FEW040 TX34/2519Z TN22/2509Z BECMG 2503/2506 27005KT 9999 SCT035 BECMG 2512/2515 23010KT CAVOK =

Estación SALTA

24 - 17:00 TAF SASA 241700Z 2418/2518 09010KT 9999 SCT025 FEW040CB TX33/2518Z TN19/2510Z BECMG 2509/2512 11005KT 9999 BKN030 FEW040CB =

Estación SAN FERNANDO

24 - 17:00 TAF SADF 241700Z 2418/2518 32015KT 9999 SCT040 TX33/2418Z TN23/2509Z PROB30 TEMPO 2500/2506 7000 SHRA SCT030 FEW040CB BKN050 BECMG 2512/2514 27015KT 9999 FEW030 =

Estación SAN JUAN

24 - 17:00 TAF SANU 241700Z 2418/2518 18010KT CAVOK TX40/2420Z TN23/2510Z BECMG 2503/2505 VRB03KT BECMG 2512/2514 16020KT =

Estación SAN LUIS

24 - 17:00 TAF SAOU 241700Z 2418/2518 29005KT CAVOK TX36/2420Z TN23/2510Z BECMG 2504/2506 05010KT BECMG 2510/2512 25010KT =

Estación SAN RAFAEL

24 - 17:00 TAF SAMR 241700Z 2418/2518 05010KT CAVOK TX35/2421Z TN20/2510Z BECMG 2506/2508 16010KT =

Estación SANTA ROSA

24 - 17:00 TAF SAZR 241700Z 2418/2518 20005KT CAVOK TX34/2418Z TN20/2510Z BECMG 2419/2421 25010KT BECMG 2510/2512 22015G25KT =

Estación SANTIAGO DEL ESTERO

24 - 11:00 TAF SANE 241700Z 2418/2518 02010KT CAVOK TX39/2518Z TN24/2510Z =

Estación SAUCE VIEJO

24 - 17:00 TAF SAAV 241700Z 2418/2518 34010KT 999 FEW045 TX35/2518Z TN19/2509Z BECMG 2421/2423 CAVOK BECMG 2512/2514 32015KT =

Estación TERMAS DE RIO HONDO

24 - 11:00 TAF SANR 241700Z 2418/2518 NIL =

Estación TRELEW

24 - 17:00 TAF SAVT 241700Z 2418/2518 27010KT 9999 FEW035 SCT070 TX27/2419Z TN18/2510Z BECMG 2500/2502 23020G35KT BECMG 2512/2513 27015KT =

Estación TUCUMAN

24 - 17:00 TAF SANT 241700Z 2418/2518 05005KT 9999 SCT040 TX36/2518Z TN21/2410Z BECMG 2506/2509 VRB03KT 9999 BKN030 BECMG 2512/2515 16005KT 7000 RA SCT015 BKN030 =

Estación USHUAIA

24 - 17:00 TAF SAWH 241700Z 2418/2518 09010KT 9999 BKN040 SCT100 TX15/2419Z TN04/2510Z PROB40 TEMPO 2416/2422 18005KT RA BKN025 BKN040 BECMG 2500/2501 34015KT NSW SCT030 SCT070 BECMG 2512/2514 34020G35KT 8000 RA BKN035 OVC060 =

Estación VIEDMA

24 - 17:00 TAF SAVV 241700Z 2418/2518 VRB06KT CAVOK TX30/2419Z TN19/2510Z BECMG 2502/2503 VRB10KT BECMG 2506/2608 21015KT BECMG 2512/2513 16020KT =